Main page
METAR-TAF:

METAR-TAF

Airports :

Stampede Pass, Washington, United States

latitude: 47-16-36N, longitude: 121-20-14W, elevation: 3959 ft

Current weather observation

The report was made 48 minutes ago, at 01:56 UTC
Wind 7 mph from the West
Temperature 46°F
Humidity 87%
Pressure 30.06 in. Hg
Visibility: 10 miles
Overcast at a height of 1500 ft

METAR: KSMP 240156Z AUTO 28006KT 10SM OVC015 08/06 A3006 RMK AO2 SLP180 T00780061

Time: 19:44 (02:44 UTC)


TAF: missing

Weather observations and forecasts of more than 4000 airports (METAR and TAF reports).

The available stations are represented by yellow and red dots on the map.

Hover mouse over dot to see the name of the station.

Then click to see weather observations and forecasts.

To change the map : click on the green buttons with a black cross to zoom in, on the green button with a dash to zoom out, or on the green arrows for adjacent maps.


METAR-TAF: